^^
B2 Weather Station Historical Data
Daily Summary for December 31, 2017 Units:  Metric    English   Both
Daily Weekly Monthly Yearly Custom
  High: Low: Average:
Temperature: -12.6 °C -19.6 °C -16.5 °C
Dew Point: -16.9 °C -23 °C -19.8 °C
Humidity: 82% 70% 76%
Wind Speed: 22.2km/h 0km/h 13km/h
Wind Gust: 22.2km/h - -
Wind- - WNW
Pressure: 1040.5 hPa 1033.1 hPa -
Precipitation: 0 mm    
Historical Graphs
 
 
Tabular Data for December 31, 2017
Time Temperature Dew Point Pressure Wind Wind Speed Wind Gust Humidity Rainfall Rate (Hourly) solar
00:00 -18.4 °C -21.6 °C 1034.4 hPa WNW 11.3 km/h 11.3 km/h 76% 0 mm 0.0 W/m2
00:05 -18.4 °C -21.6 °C 1034.1 hPa WNW 14.8 km/h 14.8 km/h 76% 0 mm 0.0 W/m2
00:06 -18.4 °C -21.6 °C 1034.1 hPa WNW 11.1 km/h 11.1 km/h 76% 0 mm 0.0 W/m2
00:11 -18.4 °C -21.6 °C 1034.1 hPa WNW 9.3 km/h 9.3 km/h 76% 0 mm 0.0 W/m2
00:12 -18.4 °C -21.6 °C 1034.1 hPa WNW 11.1 km/h 11.1 km/h 76% 0 mm 0.0 W/m2
00:14 -18.4 °C -21.6 °C 1034.1 hPa WNW 13 km/h 13 km/h 76% 0 mm 0.0 W/m2
00:19 -18.3 °C -21.5 °C 1034.1 hPa NW 9.7 km/h 9.7 km/h 76% 0 mm 0.0 W/m2
00:20 -18.3 °C -21.5 °C 1034.1 hPa WNW 7.4 km/h 8.2 km/h 76% 0 mm 0.0 W/m2
00:24 -18.3 °C -21.5 °C 1033.7 hPa WNW 6.4 km/h 6.4 km/h 76% 0 mm 0.0 W/m2
00:27 -18.3 °C -21.5 °C 1033.7 hPa NW 9.3 km/h 9.3 km/h 76% 0 mm 0.0 W/m2
00:30 -18.3 °C -21.6 °C 1034.1 hPa WNW 14.8 km/h 14.8 km/h 75% 0 mm 0.0 W/m2
00:31 -18.3 °C -21.6 °C 1034.1 hPa WNW 14.8 km/h 14.8 km/h 75% 0 mm 0.0 W/m2
00:33 -18.3 °C -21.6 °C 1033.7 hPa WNW 11.1 km/h 11.1 km/h 75% 0 mm 0.0 W/m2
00:37 -18.3 °C -21.6 °C 1033.7 hPa WNW 13 km/h 13 km/h 75% 0 mm 0.0 W/m2
00:39 -18.3 °C -21.6 °C 1033.4 hPa NW 9.3 km/h 9.3 km/h 75% 0 mm 0.0 W/m2
00:44 -18.3 °C -21.6 °C 1033.4 hPa WNW 13 km/h 13 km/h 75% 0 mm 0.0 W/m2
00:46 -18.3 °C -21.6 °C 1033.1 hPa NW 11.1 km/h 11.1 km/h 75% 0 mm 0.0 W/m2
00:49 -18.3 °C -21.6 °C 1033.1 hPa WNW 11.1 km/h 11.1 km/h 75% 0 mm 0.0 W/m2
00:51 -18.3 °C -21.6 °C 1033.1 hPa WNW 11.1 km/h 11.1 km/h 75% 0 mm 0.0 W/m2
00:56 -18.3 °C -21.6 °C 1033.4 hPa NW 8 km/h 8 km/h 75% 0 mm 0.0 W/m2
01:01 -18.3 °C -21.6 °C 1033.4 hPa NNW 8 km/h 8 km/h 75% 0 mm 0.0 W/m2
01:07 -18.3 °C -21.6 °C 1033.4 hPa WNW 9.3 km/h 9.3 km/h 75% 0 mm 0.0 W/m2
01:12 -18.3 °C -21.6 °C 1033.4 hPa NW 11.3 km/h 11.3 km/h 75% 0 mm 0.0 W/m2
01:17 -18.3 °C -21.6 °C 1033.7 hPa WNW 5.6 km/h 5.6 km/h 75% 0 mm 0.0 W/m2
01:22 -18.3 °C -21.7 °C 1034.1 hPa WNW 13 km/h 13 km/h 75% 0 mm 0.0 W/m2
01:23 -18.3 °C -21.7 °C 1034.1 hPa WNW 16.7 km/h 16.7 km/h 75% 0 mm 0.0 W/m2
01:24 -18.3 °C -21.7 °C 1034.1 hPa WNW 13 km/h 13 km/h 75% 0 mm 0.0 W/m2
01:29 -18.3 °C -21.7 °C 1033.7 hPa NW 13 km/h 13 km/h 75% 0 mm 0.0 W/m2
01:30 -18.4 °C -21.7 °C 1033.7 hPa NW 11.3 km/h 11.3 km/h 75% 0 mm 0.0 W/m2
01:35 -18.3 °C -21.7 °C 1033.7 hPa NW 18.5 km/h 18.5 km/h 75% 0 mm 0.0 W/m2
01:37 -18.3 °C -21.7 °C 1033.7 hPa WNW 16.7 km/h 16.7 km/h 75% 0 mm 0.0 W/m2
01:41 -18.3 °C -21.7 °C 1034.1 hPa WNW 14.8 km/h 14.8 km/h 75% 0 mm 0.0 W/m2
01:42 -18.3 °C -21.7 °C 1034.1 hPa WNW 14.8 km/h 14.8 km/h 75% 0 mm 0.0 W/m2
01:47 -18.3 °C -21.6 °C 1034.1 hPa WNW 13 km/h 13 km/h 75% 0 mm 0.0 W/m2
01:48 -18.3 °C -21.4 °C 1034.1 hPa WNW 13 km/h 13 km/h 76% 0 mm 0.0 W/m2
01:52 -18.3 °C -21.6 °C 1034.1 hPa NW 13 km/h 13 km/h 75% 0 mm 0.0 W/m2
01:54 -18.3 °C -21.6 °C 1034.1 hPa WNW 14.8 km/h 14.8 km/h 75% 0 mm 0.0 W/m2
01:59 -18.3 °C -21.6 °C 1034.4 hPa NW 20.4 km/h 20.4 km/h 75% 0 mm 0.0 W/m2
02:03 -18.2 °C -21.6 °C 1034.4 hPa WNW 14.8 km/h 14.8 km/h 75% 0 mm 0.0 W/m2
02:05 -18.2 °C -21.6 °C 1034.4 hPa WNW 9.3 km/h 9.3 km/h 75% 0 mm 0.0 W/m2
02:08 -18.2 °C -21.6 °C 1034.4 hPa WNW 13 km/h 13 km/h 75% 0 mm 0.0 W/m2
02:10 -18.2 °C -21.6 °C 1034.4 hPa WNW 14.8 km/h 14.8 km/h 75% 0 mm 0.0 W/m2
02:15 -18.2 °C -21.6 °C 1034.4 hPa NW 9.7 km/h 9.7 km/h 75% 0 mm 0.0 W/m2
02:16 -18.2 °C -21.5 °C 1034.1 hPa NW 9.7 km/h 9.7 km/h 75% 0 mm 0.0 W/m2
02:17 -18.2 °C -21.6 °C 1034.1 hPa NW 9.3 km/h 9.3 km/h 75% 0 mm 0.0 W/m2
02:19 -18.2 °C -21.5 °C 1034.1 hPa WNW 13 km/h 13 km/h 75% 0 mm 0.0 W/m2
02:24 -18.2 °C -21.5 °C 1034.1 hPa WNW 11.1 km/h 11.1 km/h 75% 0 mm 0.0 W/m2
02:29 -18.2 °C -21.5 °C 1034.8 hPa WNW 14.8 km/h 14.8 km/h 75% 0 mm 0.0 W/m2
02:31 -18.2 °C -21.5 °C 1034.8 hPa NW 13 km/h 13 km/h 75% 0 mm 0.0 W/m2
02:36 -18.1 °C -21.4 °C 1034.8 hPa WNW 11.3 km/h 11.3 km/h 75% 0 mm 0.0 W/m2
02:37 -18.1 °C -21.4 °C 1034.8 hPa WNW 11.1 km/h 11.1 km/h 75% 0 mm 0.0 W/m2
02:42 -18.1 °C -21.4 °C 1034.8 hPa WNW 13 km/h 13 km/h 75% 0 mm 0.0 W/m2
02:43 -18.1 °C -21.4 °C 1034.8 hPa WNW 11.1 km/h 11.1 km/h 75% 0 mm 0.0 W/m2
02:48 -18.1 °C -21.4 °C 1034.8 hPa WNW 11.1 km/h 11.1 km/h 75% 0 mm 0.0 W/m2
02:53 -18.1 °C -21.3 °C 1034.8 hPa West 12.9 km/h 12.9 km/h 76% 0 mm 0.0 W/m2
02:55 -18.1 °C -21.3 °C 1034.8 hPa WNW 14.5 km/h 14.5 km/h 76% 0 mm 0.0 W/m2
02:59 -18.1 °C -21.3 °C 1034.8 hPa WSW 18.5 km/h 18.5 km/h 76% 0 mm 0.0 W/m2
03:03 -18.1 °C -21.3 °C 1035.1 hPa WNW 13 km/h 13 km/h 76% 0 mm 0.0 W/m2
03:08 -18.1 °C -21.3 °C 1035.1 hPa WNW 9.3 km/h 9.3 km/h 76% 0 mm 0.0 W/m2
03:10 -18.1 °C -21.3 °C 1035.1 hPa WNW 18.5 km/h 18.5 km/h 76% 0 mm 0.0 W/m2
03:13 -18.1 °C -21.3 °C 1035.4 hPa WNW 16.7 km/h 16.7 km/h 76% 0 mm 0.0 W/m2
03:16 -18 °C -21.2 °C 1035.4 hPa WNW 13 km/h 13 km/h 76% 0 mm 0.0 W/m2
03:19 -18 °C -21.2 °C 1035.4 hPa WNW 16.7 km/h 16.7 km/h 76% 0 mm 0.0 W/m2
03:23 -17.9 °C -21.2 °C 1035.1 hPa WNW 16.7 km/h 16.7 km/h 76% 0 mm 0.0 W/m2
03:24 -17.9 °C -21.2 °C 1035.1 hPa WNW 9.3 km/h 9.3 km/h 76% 0 mm 0.0 W/m2
03:29 -17.9 °C -21.2 °C 1035.4 hPa NW 14.8 km/h 14.8 km/h 76% 0 mm 0.0 W/m2
03:31 -17.9 °C -21.3 °C 1035.1 hPa WNW 16.7 km/h 16.7 km/h 75% 0 mm 0.0 W/m2
03:35 -17.9 °C -21.2 °C 1035.4 hPa WNW 18.5 km/h 18.5 km/h 76% 0 mm 0.0 W/m2
03:36 -17.9 °C -21.2 °C 1035.4 hPa WNW 11.1 km/h 11.1 km/h 76% 0 mm 0.0 W/m2
03:41 -17.8 °C -21.1 °C 1035.4 hPa WNW 11.1 km/h 11.1 km/h 76% 0 mm 0.0 W/m2
03:46 -17.8 °C -21.1 °C 1035.4 hPa WNW 13 km/h 13 km/h 76% 0 mm 0.0 W/m2
03:47 -17.8 °C -21 °C 1035.4 hPa WNW 14.8 km/h 14.8 km/h 76% 0 mm 0.0 W/m2
03:48 -17.8 °C -21 °C 1035.4 hPa WNW 13 km/h 13 km/h 76% 0 mm 0.0 W/m2
03:53 -17.8 °C -21 °C 1035.4 hPa WNW 11.1 km/h 11.1 km/h 76% 0 mm 0.0 W/m2
03:58 -17.7 °C -20.8 °C 1035.4 hPa WNW 9.3 km/h 9.3 km/h 77% 0 mm 0.0 W/m2
04:01 -17.7 °C -20.8 °C 1035.1 hPa WNW 13 km/h 13 km/h 77% 0 mm 0.0 W/m2
04:02 -17.7 °C -20.7 °C 1035.1 hPa NW 13 km/h 13 km/h 77% 0 mm 0.0 W/m2
04:07 -17.7 °C -20.7 °C 1034.8 hPa NW 11.1 km/h 11.1 km/h 77% 0 mm 0.0 W/m2
04:08 -17.7 °C -20.6 °C 1034.8 hPa NW 7.4 km/h 7.4 km/h 78% 0 mm 0.0 W/m2
04:13 -17.7 °C -20.6 °C 1035.1 hPa NW 13 km/h 13 km/h 78% 0 mm 0.0 W/m2
04:14 -17.7 °C -20.6 °C 1035.1 hPa NW 13 km/h 13 km/h 78% 0 mm 0.0 W/m2
04:19 -17.6 °C -20.5 °C 1035.1 hPa WNW 9.3 km/h 9.3 km/h 78% 0 mm 0.0 W/m2
04:24 -17.6 °C -20.4 °C 1035.1 hPa WNW 14.8 km/h 14.8 km/h 79% 0 mm 0.0 W/m2
04:25 -17.6 °C -20.4 °C 1035.1 hPa WNW 11.1 km/h 11.1 km/h 79% 0 mm 0.0 W/m2
04:30 -17.7 °C -20.4 °C 1034.8 hPa NW 13 km/h 13 km/h 79% 0 mm 0.0 W/m2
04:31 -17.7 °C -20.4 °C 1034.8 hPa NW 11.3 km/h 11.3 km/h 79% 0 mm 0.0 W/m2
04:36 -17.7 °C -20.3 °C 1034.4 hPa NW 13 km/h 13 km/h 80% 0 mm 0.0 W/m2
04:37 -17.7 °C -20.3 °C 1034.4 hPa WNW 18.5 km/h 18.5 km/h 80% 0 mm 0.0 W/m2
04:42 -17.6 °C -20.2 °C 1034.8 hPa NW 18.5 km/h 18.5 km/h 80% 0 mm 0.0 W/m2
04:43 -17.6 °C -20.2 °C 1034.4 hPa NNW 17.7 km/h 17.7 km/h 80% 0 mm 0.0 W/m2
04:47 -17.7 °C -20.3 °C 1034.4 hPa WNW 14.5 km/h 14.5 km/h 80% 0 mm 0.0 W/m2
04:48 -17.7 °C -20.3 °C 1034.8 hPa NW 16.7 km/h 16.7 km/h 80% 0 mm 0.0 W/m2
04:53 -17.7 °C -20.3 °C 1034.8 hPa NW 18.5 km/h 18.5 km/h 80% 0 mm 0.0 W/m2
04:57 -17.7 °C -20.3 °C 1034.8 hPa NW 16.7 km/h 16.7 km/h 80% 0 mm 0.0 W/m2
04:58 -17.7 °C -20.3 °C 1034.8 hPa NW 16.7 km/h 16.7 km/h 80% 0 mm 0.0 W/m2
05:03 -17.7 °C -20.2 °C 1034.8 hPa NW 14.5 km/h 14.5 km/h 81% 0 mm 0.0 W/m2
05:05 -17.7 °C -20.2 °C 1034.8 hPa NW 16.1 km/h 16.1 km/h 81% 0 mm 0.0 W/m2
05:10 -17.7 °C -20.2 °C 1034.8 hPa NW 14.8 km/h 14.8 km/h 81% 0 mm 0.0 W/m2
05:14 -17.7 °C -20.2 °C 1035.4 hPa NW 19.3 km/h 19.3 km/h 81% 0 mm 0.0 W/m2
05:17 -17.7 °C -20 °C 1035.1 hPa NW 20.4 km/h 20.4 km/h 82% 0 mm 0.0 W/m2
05:22 -17.7 °C -20 °C 1035.1 hPa NW 20.4 km/h 20.4 km/h 82% 0 mm 0.0 W/m2
05:23 -17.7 °C -20 °C 1035.1 hPa NW 18.5 km/h 18.5 km/h 82% 0 mm 0.0 W/m2
05:28 -17.7 °C -20 °C 1035.8 hPa NW 18.5 km/h 18.5 km/h 82% 0 mm 0.0 W/m2
05:33 -17.7 °C -20 °C 1035.4 hPa NW 16.7 km/h 16.7 km/h 82% 0 mm 0.0 W/m2
05:34 -17.7 °C -20 °C 1035.4 hPa NW 16.7 km/h 16.7 km/h 82% 0 mm 0.0 W/m2
05:38 -17.6 °C -19.9 °C 1035.8 hPa NW 18.5 km/h 18.5 km/h 82% 0 mm 0.0 W/m2
05:40 -17.7 °C -20 °C 1035.4 hPa NW 18.5 km/h 18.5 km/h 82% 0 mm 0.0 W/m2
05:45 -17.6 °C -19.9 °C 1035.4 hPa NNW 20.4 km/h 20.4 km/h 82% 0 mm 0.0 W/m2
05:50 -17.6 °C -19.9 °C 1035.4 hPa WNW 16.7 km/h 16.7 km/h 82% 0 mm 0.0 W/m2
05:51 -17.6 °C -19.9 °C 1035.4 hPa WNW 20.4 km/h 20.4 km/h 82% 0 mm 0.0 W/m2
05:55 -17.6 °C -19.9 °C 1035.1 hPa NW 18.5 km/h 18.5 km/h 82% 0 mm 0.0 W/m2
06:00 -17.6 °C -19.9 °C 1034.1 hPa NW 9.3 km/h 9.3 km/h 82% 0 mm 0.0 W/m2
06:02 -17.6 °C -19.9 °C 1034.1 hPa NW 9.3 km/h 9.3 km/h 82% 0 mm 0.0 W/m2
06:04 -17.6 °C -19.9 °C 1034.1 hPa NW 6.4 km/h 6.4 km/h 82% 0 mm 0.0 W/m2
06:07 -17.6 °C -19.9 °C 1034.1 hPa NW 11.1 km/h 11.1 km/h 82% 0 mm 0.0 W/m2
06:10 -17.7 °C -20.2 °C 1034.4 hPa WNW 9.3 km/h 9.3 km/h 81% 0 mm 0.0 W/m2
06:13 -17.7 °C -20.2 °C 1034.1 hPa NW 11.1 km/h 11.1 km/h 81% 0 mm 0.0 W/m2
06:18 -17.7 °C -20.2 °C 1034.4 hPa WNW 4.8 km/h 4.8 km/h 81% 0 mm 0.0 W/m2
06:19 -17.7 °C -20.2 °C 1034.4 hPa NW 4.8 km/h 4.8 km/h 81% 0 mm 0.0 W/m2
06:24 -17.7 °C -20.2 °C 1034.8 hPa WNW 1.9 km/h   81% 0 mm 0.0 W/m2
06:25 -17.7 °C -20.2 °C 1034.8 hPa Calm     81% 0 mm 0.0 W/m2
06:29 -17.7 °C -20.2 °C 1034.8 hPa NW 5.6 km/h 5.6 km/h 81% 0 mm 0.0 W/m2
06:30 -17.7 °C -20.2 °C 1035.1 hPa NW 5.6 km/h 5.6 km/h 81% 0 mm 0.0 W/m2
06:34 -17.7 °C -20.2 °C 1035.1 hPa NW 3.7 km/h 3.7 km/h 81% 0 mm 0.0 W/m2
06:36 -17.8 °C -20.2 °C 1035.1 hPa NW 4.8 km/h 4.8 km/h 81% 0 mm 0.0 W/m2
06:39 -17.8 °C -20.2 °C 1035.1 hPa WNW 5.6 km/h 5.6 km/h 81% 0 mm 0.0 W/m2
06:44 -17.8 °C -20.3 °C 1035.1 hPa WNW 1.9 km/h 1.9 km/h 81% 0 mm 0.0 W/m2
06:46 -17.8 °C -20.3 °C 1035.4 hPa WNW 1.9 km/h 1.9 km/h 81% 0 mm 0.0 W/m2
06:48 -17.9 °C -20.3 °C 1035.4 hPa WNW 3.2 km/h 3.2 km/h 81% 0 mm 0.0 W/m2
06:53 -17.9 °C -20.4 °C 1035.1 hPa WNW 1.9 km/h   81% 0 mm 0.0 W/m2
06:56 -18 °C -20.4 °C 1035.1 hPa WNW 1.9 km/h   81% 0 mm 0.0 W/m2
07:02 -18.1 °C -20.5 °C 1035.4 hPa WNW 3.7 km/h 3.7 km/h 81% 0 mm 0.0 W/m2
07:07 -18.2 °C -20.6 °C 1035.4 hPa WNW 1.6 km/h 1.6 km/h 81% 0 mm 0.0 W/m2
07:08 -18.2 °C -20.6 °C 1035.4 hPa WNW 3.7 km/h 3.7 km/h 81% 0 mm 0.0 W/m2
07:13 -18.2 °C -20.7 °C 1035.4 hPa WNW 3.7 km/h 3.7 km/h 81% 0 mm 0.0 W/m2
07:14 -18.2 °C -20.7 °C 1035.4 hPa WNW 1.9 km/h 1.9 km/h 81% 0 mm 0.0 W/m2
07:16 -18.2 °C -20.7 °C 1035.4 hPa WNW 4.8 km/h 4.8 km/h 81% 0 mm 0.0 W/m2
07:20 -18.3 °C -20.7 °C 1035.8 hPa WNW 5.6 km/h 5.6 km/h 81% 0 mm 0.0 W/m2
07:25 -18.3 °C -20.7 °C 1035.8 hPa WNW 5.6 km/h 5.6 km/h 81% 0 mm 5.0 W/m2
07:30 -18.3 °C -20.8 °C 1035.8 hPa WNW 3.7 km/h 3.7 km/h 81% 0 mm 7.0 W/m2
07:32 -18.3 °C -20.8 °C 1035.8 hPa WNW 3.7 km/h 3.7 km/h 81% 0 mm 9.0 W/m2
07:36 -18.3 °C -20.8 °C 1035.8 hPa WNW 1.9 km/h 1.9 km/h 81% 0 mm 16.0 W/m2
07:38 -18.3 °C -20.8 °C 1035.8 hPa Calm     81% 0 mm 19.0 W/m2
07:43 -18.3 °C -20.8 °C 1035.8 hPa Calm     81% 0 mm 25.0 W/m2
07:48 -18.3 °C -20.8 °C 1035.8 hPa WNW 1.9 km/h   81% 0 mm 32.0 W/m2
07:49 -18.3 °C -20.8 °C 1035.8 hPa Calm     81% 0 mm 33.0 W/m2
07:54 -18.3 °C -20.8 °C 1035.8 hPa Calm     81% 0 mm 42.0 W/m2
07:59 -18.3 °C -20.7 °C 1035.8 hPa WNW 3.7 km/h 3.7 km/h 81% 0 mm 54.0 W/m2
08:01 -18.2 °C -20.7 °C 1035.8 hPa Calm     81% 0 mm 60.0 W/m2
08:02 -18.2 °C -20.7 °C 1035.8 hPa Calm     81% 0 mm 62.0 W/m2
08:07 -18.2 °C -20.6 °C 1035.8 hPa Calm     81% 0 mm 70.0 W/m2
08:12 -18.1 °C -20.6 °C 1036.1 hPa Calm     81% 0 mm 81.0 W/m2
08:14 -18.1 °C -20.5 °C 1036.1 hPa WNW 3.7 km/h 3.7 km/h 81% 0 mm 88.0 W/m2
08:17 -18 °C -20.4 °C 1036.1 hPa WNW 9.3 km/h 9.3 km/h 81% 0 mm 98.0 W/m2
08:21 -17.9 °C -20.4 °C 1036.1 hPa WNW 5.6 km/h 5.6 km/h 81% 0 mm 107.0 W/m2
08:23 -17.9 °C -20.4 °C 1035.8 hPa WNW 1.6 km/h   81% 0 mm 111.0 W/m2
08:28 -17.8 °C -20.4 °C 1036.1 hPa WNW 5.6 km/h 5.6 km/h 80% 0 mm 127.0 W/m2
08:29 -17.8 °C -20.4 °C 1036.1 hPa Calm   0.2 km/h 80% 0 mm 132.0 W/m2
08:34 -17.8 °C -20.4 °C 1036.1 hPa WNW 3.7 km/h   80% 0 mm 148.0 W/m2
08:40 -17.7 °C -20.4 °C 1036.1 hPa WNW 5.6 km/h 5.6 km/h 79% 0 mm 165.0 W/m2
08:45 -17.6 °C -20.3 °C 1036.1 hPa WNW 5.6 km/h 5.6 km/h 79% 0 mm 197.0 W/m2
08:46 -17.6 °C -20.3 °C 1036.1 hPa WNW 7.4 km/h 7.4 km/h 79% 0 mm 202.0 W/m2
08:49 -17.6 °C -20.3 °C 1036.1 hPa WNW 11.1 km/h 11.1 km/h 79% 0 mm 221.0 W/m2
08:52 -17.4 °C -20.3 °C 1036.1 hPa WNW 9.3 km/h 9.3 km/h 78% 0 mm 243.0 W/m2
08:57 -17.3 °C -20.3 °C 1036.1 hPa Calm     78% 0 mm 290.0 W/m2
09:02 -17.2 °C -20.2 °C 1036.1 hPa West 9.3 km/h 9.3 km/h 78% 0 mm 322.0 W/m2
09:04 -17.2 °C -20.1 °C 1036.1 hPa West 9.3 km/h 9.3 km/h 78% 0 mm 302.0 W/m2
09:08 -17 °C -19.9 °C 1036.1 hPa West 11.1 km/h 11.1 km/h 78% 0 mm 287.0 W/m2
09:13 -16.9 °C -20 °C 1036.5 hPa WNW 11.1 km/h 11.1 km/h 77% 0 mm 288.0 W/m2
09:16 -16.9 °C -19.9 °C 1036.5 hPa WNW 11.1 km/h 11.1 km/h 77% 0 mm 301.0 W/m2
09:17 -16.9 °C -20.1 °C 1036.5 hPa WNW 14.8 km/h 14.8 km/h 76% 0 mm 304.0 W/m2
09:22 -16.9 °C -20.1 °C 1036.5 hPa WNW 16.7 km/h 16.7 km/h 76% 0 mm 301.0 W/m2
09:27 -16.9 °C -20.1 °C 1036.5 hPa West 13 km/h 13 km/h 76% 0 mm 301.0 W/m2
09:29 -16.9 °C -20.1 °C 1036.5 hPa WNW 14.8 km/h 14.8 km/h 76% 0 mm 264.0 W/m2
09:32 -16.8 °C -20.1 °C 1036.8 hPa WNW 14.8 km/h 14.8 km/h 76% 0 mm 318.0 W/m2
09:35 -16.8 °C -20.1 °C 1036.8 hPa WNW 8 km/h 8 km/h 76% 0 mm 316.0 W/m2
09:40 -16.8 °C -20.2 °C 1036.8 hPa WNW 9.3 km/h 9.3 km/h 75% 0 mm 288.0 W/m2
09:42 -16.8 °C -20.2 °C 1036.8 hPa NW 13 km/h 13 km/h 75% 0 mm 257.0 W/m2
09:45 -16.8 °C -20.2 °C 1036.8 hPa WNW 14.8 km/h 14.8 km/h 75% 0 mm 237.0 W/m2
09:48 -16.8 °C -20.2 °C 1036.8 hPa WNW 16.7 km/h 16.7 km/h 75% 0 mm 223.0 W/m2
09:53 -16.8 °C -20.2 °C 1037.1 hPa WNW 7.4 km/h 7.4 km/h 75% 0 mm 179.0 W/m2
09:54 -16.8 °C -20 °C 1037.1 hPa WNW 9.3 km/h 9.3 km/h 76% 0 mm 183.0 W/m2
09:57 -16.8 °C -20 °C 1037.1 hPa WNW 13 km/h 13 km/h 76% 0 mm 185.0 W/m2
09:59 -16.8 °C -20 °C 1037.1 hPa WNW 11.3 km/h 11.3 km/h 76% 0 mm 211.0 W/m2
10:04 -16.7 °C -19.9 °C 1037.1 hPa WNW 16.7 km/h 16.7 km/h 76% 0 mm 204.0 W/m2
10:06 -16.7 °C -19.9 °C 1037.1 hPa West 16.7 km/h 16.7 km/h 76% 0 mm 204.0 W/m2
10:09 -16.7 °C -19.9 °C 1037.1 hPa WNW 13 km/h 13 km/h 76% 0 mm 204.0 W/m2
10:12 -16.7 °C -19.9 °C 1037.5 hPa WNW 16.7 km/h 16.7 km/h 76% 0 mm 209.0 W/m2
10:17 -16.7 °C -19.9 °C 1037.1 hPa WNW 13 km/h 13 km/h 76% 0 mm 202.0 W/m2
10:22 -16.6 °C -19.8 °C 1037.1 hPa WNW 13 km/h 13 km/h 76% 0 mm 195.0 W/m2
10:25 -16.5 °C -19.7 °C 1037.1 hPa WNW 13 km/h 13 km/h 76% 0 mm 211.0 W/m2
10:27 -16.5 °C -19.7 °C 1037.1 hPa WNW 11.1 km/h 11.1 km/h 76% 0 mm 225.0 W/m2
10:32 -16.3 °C -19.5 °C 1037.1 hPa West 7.4 km/h 7.4 km/h 76% 0 mm 251.0 W/m2
10:34 -16.2 °C -19.5 °C 1037.1 hPa WNW 11.1 km/h 11.1 km/h 76% 0 mm 234.0 W/m2
10:39 -16.2 °C -19.4 °C 1037.1 hPa WSW 9.3 km/h 9.3 km/h 76% 0 mm 248.0 W/m2
10:42 -16.2 °C -19.4 °C 1037.1 hPa West 11.1 km/h 11.1 km/h 76% 0 mm 251.0 W/m2
10:44 -16.1 °C -19.3 °C 1037.1 hPa WNW 11.1 km/h 11.1 km/h 76% 0 mm 383.0 W/m2
10:49 -15.8 °C -19.1 °C 1037.1 hPa WNW 9.7 km/h 9.7 km/h 76% 0 mm 397.0 W/m2
10:50 -15.7 °C -19 °C 1037.1 hPa WNW 13 km/h 13 km/h 76% 0 mm 336.0 W/m2
10:55 -15.5 °C -18.8 °C 1037.1 hPa WNW 7.4 km/h 7.4 km/h 76% 0 mm 455.0 W/m2
10:56 -15.5 °C -18.8 °C 1037.1 hPa West 7.4 km/h 7.4 km/h 76% 0 mm 455.0 W/m2
11:01 -15.3 °C -18.6 °C 1037.1 hPa West 11.1 km/h 11.1 km/h 76% 0 mm 413.0 W/m2
11:02 -15.3 °C -18.6 °C 1037.1 hPa West 7.4 km/h 7.4 km/h 76% 0 mm 413.0 W/m2
11:06 -15.2 °C -18.7 °C 1037.1 hPa WSW 13 km/h 13 km/h 75% 0 mm 343.0 W/m2
11:07 -15.2 °C -18.7 °C 1037.1 hPa WNW 5.6 km/h 5.6 km/h 75% 0 mm 343.0 W/m2
11:12 -15.1 °C -18.6 °C 1036.8 hPa West 9.3 km/h 9.3 km/h 75% 0 mm 417.0 W/m2
11:17 -14.8 °C -18.1 °C 1036.8 hPa West 11.1 km/h 11.1 km/h 76% 0 mm 411.0 W/m2
11:18 -14.8 °C -18.3 °C 1036.8 hPa West 16.7 km/h 16.7 km/h 75% 0 mm 411.0 W/m2
11:23 -14.7 °C -18.2 °C 1036.8 hPa WNW 9.7 km/h 9.7 km/h 75% 0 mm 446.0 W/m2
11:25 -14.7 °C -18.2 °C 1036.8 hPa NW 14.8 km/h 14.8 km/h 75% 0 mm 425.0 W/m2
11:29 -14.8 °C -18.4 °C 1036.8 hPa NW 14.8 km/h 14.8 km/h 74% 0 mm 473.0 W/m2
11:34 -14.8 °C -18.3 °C 1036.8 hPa WNW 16.7 km/h 16.7 km/h 75% 0 mm 346.0 W/m2
11:35 -14.8 °C -18.3 °C 1036.8 hPa WNW 14.8 km/h 14.8 km/h 75% 0 mm 346.0 W/m2
11:40 -14.8 °C -18.2 °C 1036.8 hPa WNW 14.8 km/h 14.8 km/h 75% 0 mm 475.0 W/m2
11:41 -14.7 °C -18.2 °C 1036.8 hPa NW 11.1 km/h 11.1 km/h 75% 0 mm 475.0 W/m2
11:45 -14.6 °C -18 °C 1036.5 hPa WNW 11.1 km/h 11.1 km/h 75% 0 mm 478.0 W/m2
11:50 -14.4 °C -17.9 °C 1036.5 hPa NW 13 km/h 13 km/h 75% 0 mm 506.0 W/m2
11:51 -14.4 °C -17.9 °C 1036.5 hPa WNW 13 km/h 13 km/h 75% 0 mm 510.0 W/m2
11:56 -14.3 °C -17.8 °C 1036.5 hPa WNW 16.7 km/h 16.7 km/h 75% 0 mm 482.0 W/m2
11:58 -14.3 °C -17.8 °C 1036.5 hPa WNW 14.8 km/h 14.8 km/h 75% 0 mm 506.0 W/m2
11:59 -14.4 °C -18 °C 1036.5 hPa WNW 14.8 km/h 14.8 km/h 74% 0 mm 506.0 W/m2
12:04 -14.5 °C -18.1 °C 1036.5 hPa NW 13 km/h 13 km/h 74% 0 mm 413.0 W/m2
12:05 -14.5 °C -18.1 °C 1036.5 hPa NW 7.4 km/h 7.4 km/h 74% 0 mm 413.0 W/m2
12:09 -14.5 °C -17.9 °C 1036.5 hPa WNW 7.4 km/h 7.4 km/h 75% 0 mm 417.0 W/m2
12:14 -14.4 °C -17.9 °C 1036.5 hPa Calm     75% 0 mm 422.0 W/m2
12:16 -14.4 °C -17.9 °C 1036.5 hPa WNW 7.4 km/h 7.4 km/h 75% 0 mm 262.0 W/m2
12:21 -14.6 °C -18.2 °C 1036.5 hPa WNW 13 km/h 13 km/h 74% 0 mm 174.0 W/m2
12:22 -14.6 °C -18.2 °C 1036.5 hPa WNW 14.8 km/h 14.8 km/h 74% 0 mm 174.0 W/m2
12:24 -14.7 °C -18.3 °C 1036.5 hPa WNW 14.8 km/h 14.8 km/h 74% 0 mm 281.0 W/m2
12:27 -14.8 °C -18.2 °C 1036.5 hPa NW 14.8 km/h 14.8 km/h 75% 0 mm 494.0 W/m2
12:29 -14.7 °C -17.9 °C 1036.5 hPa NW 14.8 km/h 14.8 km/h 76% 0 mm 490.0 W/m2
12:34 -14.6 °C -17.8 °C 1036.5 hPa NW 11.1 km/h 11.1 km/h 76% 0 mm 483.0 W/m2
12:39 -14.4 °C -17.7 °C 1036.1 hPa West 16.7 km/h 16.7 km/h 76% 0 mm 380.0 W/m2
12:40 -14.4 °C -17.7 °C 1036.5 hPa WNW 16.7 km/h 16.7 km/h 76% 0 mm 380.0 W/m2
12:45 -14.4 °C -17.7 °C 1036.5 hPa NW 13 km/h 13 km/h 76% 0 mm 381.0 W/m2
12:46 -14.4 °C -17.7 °C 1036.5 hPa WNW 11.1 km/h 11.1 km/h 76% 0 mm 376.0 W/m2
12:50 -14.5 °C -17.9 °C 1036.5 hPa WNW 14.8 km/h 14.8 km/h 75% 0 mm 338.0 W/m2
12:55 -14.6 °C -18.1 °C 1036.5 hPa NW 14.8 km/h 14.8 km/h 75% 0 mm 362.0 W/m2
12:56 -14.6 °C -18.1 °C 1036.5 hPa NW 14.8 km/h 14.8 km/h 75% 0 mm 362.0 W/m2
12:57 -14.7 °C -18.1 °C 1036.5 hPa WNW 14.8 km/h 14.8 km/h 75% 0 mm 383.0 W/m2
13:01 -14.7 °C -18.1 °C 1036.5 hPa WNW 9.3 km/h 9.3 km/h 75% 0 mm 334.0 W/m2
13:02 -14.6 °C -18.1 °C 1036.5 hPa WNW 9.3 km/h 9.3 km/h 75% 0 mm 350.0 W/m2
13:06 -14.6 °C -18 °C 1036.5 hPa WNW 9.3 km/h 9.3 km/h 75% 0 mm 341.0 W/m2
13:07 -14.6 °C -18 °C 1036.5 hPa WNW 13 km/h 13 km/h 75% 0 mm 341.0 W/m2
13:08 -14.6 °C -18 °C 1036.5 hPa WNW 7.4 km/h 7.4 km/h 75% 0 mm 341.0 W/m2
13:12 -14.5 °C -17.9 °C 1036.5 hPa West 14.8 km/h 14.8 km/h 75% 0 mm 383.0 W/m2
13:17 -14.4 °C -17.8 °C 1036.5 hPa WNW 11.1 km/h 11.1 km/h 75% 0 mm 403.0 W/m2
13:22 -14.2 °C -17.7 °C 1036.5 hPa NW 9.3 km/h 9.3 km/h 75% 0 mm 385.0 W/m2
13:25 -14.2 °C -17.8 °C 1036.5 hPa WNW 14.8 km/h 14.8 km/h 74% 0 mm 383.0 W/m2
13:28 -14.1 °C -17.7 °C 1036.5 hPa WNW 5.6 km/h 5.6 km/h 74% 0 mm 373.0 W/m2
13:31 -14.1 °C -17.5 °C 1036.1 hPa West 14.8 km/h 14.8 km/h 75% 0 mm 373.0 W/m2
13:36 -13.9 °C -17.6 °C 1036.5 hPa WNW 18.5 km/h 18.5 km/h 74% 0 mm 369.0 W/m2
13:37 -13.9 °C -17.6 °C 1036.1 hPa West 18.5 km/h 18.5 km/h 74% 0 mm 369.0 W/m2
13:38 -13.9 °C -17.6 °C 1036.1 hPa NW 18.5 km/h 18.5 km/h 74% 0 mm 366.0 W/m2
13:42 -13.9 °C -17.6 °C 1036.1 hPa WNW 16.7 km/h 16.7 km/h 74% 0 mm 362.0 W/m2
13:47 -13.9 °C -17.5 °C 1036.1 hPa WNW 13 km/h 13 km/h 74% 0 mm 360.0 W/m2
13:52 -13.7 °C -17.3 °C 1036.1 hPa WNW 14.8 km/h 14.8 km/h 74% 0 mm 357.0 W/m2
13:54 -13.6 °C -17.4 °C 1036.1 hPa West 16.7 km/h 16.7 km/h 73% 0 mm 353.0 W/m2
13:59 -13.6 °C -17.6 °C 1036.1 hPa WNW 13 km/h 13 km/h 72% 0 mm 339.0 W/m2
14:00 -13.6 °C -17.5 °C 1036.1 hPa NW 14.5 km/h 14.5 km/h 72% 0 mm 334.0 W/m2
14:02 -13.6 °C -17.4 °C 1036.1 hPa NW 18.5 km/h 18.5 km/h 73% 0 mm 329.0 W/m2
14:05 -13.6 °C -17.5 °C 1036.1 hPa WNW 16.7 km/h 16.7 km/h 72% 0 mm 325.0 W/m2
14:10 -13.4 °C -17.4 °C 1036.1 hPa NW 18.5 km/h 18.5 km/h 72% 0 mm 322.0 W/m2
14:11 -13.4 °C -17.4 °C 1036.1 hPa West 18.5 km/h 18.5 km/h 72% 0 mm 320.0 W/m2
14:16 -13.3 °C -17.3 °C 1036.5 hPa West 18.5 km/h 18.5 km/h 72% 0 mm 311.0 W/m2
14:21 -13.2 °C -17.2 °C 1036.1 hPa WNW 18.5 km/h 18.5 km/h 72% 0 mm 302.0 W/m2
14:26 -13.2 °C -17.3 °C 1036.5 hPa WNW 18.5 km/h 18.5 km/h 71% 0 mm 290.0 W/m2
14:28 -13.1 °C -17.3 °C 1036.5 hPa WNW 16.1 km/h 16.1 km/h 71% 0 mm 287.0 W/m2
14:34 -13 °C -17.2 °C 1036.5 hPa West 13 km/h 13 km/h 71% 0 mm 272.0 W/m2
14:35 -12.9 °C -17.1 °C 1036.5 hPa WNW 9.3 km/h 9.3 km/h 71% 0 mm 271.0 W/m2
14:36 -12.9 °C -17.1 °C 1036.5 hPa West 11.1 km/h 11.1 km/h 71% 0 mm 267.0 W/m2
14:41 -12.8 °C -17 °C 1036.5 hPa West 11.1 km/h 11.1 km/h 71% 0 mm 253.0 W/m2
14:42 -12.8 °C -17 °C 1036.5 hPa WNW 13 km/h 13 km/h 71% 0 mm 250.0 W/m2
14:44 -12.8 °C -17 °C 1036.5 hPa WNW 16.7 km/h 16.7 km/h 71% 0 mm 244.0 W/m2
14:47 -12.8 °C -17.2 °C 1036.5 hPa WNW 14.5 km/h 14.5 km/h 70% 0 mm 234.0 W/m2
14:52 -12.8 °C -17.1 °C 1036.5 hPa West 11.1 km/h 11.1 km/h 70% 0 mm 221.0 W/m2
14:53 -12.8 °C -17.1 °C 1036.5 hPa WNW 12.9 km/h 12.9 km/h 70% 0 mm 220.0 W/m2
14:58 -12.7 °C -17.1 °C 1036.5 hPa WNW 13 km/h 13 km/h 70% 0 mm 204.0 W/m2
15:03 -12.7 °C -17 °C 1036.8 hPa West 14.8 km/h 14.8 km/h 70% 0 mm 188.0 W/m2
15:04 -12.7 °C -17 °C 1036.5 hPa NW 16.7 km/h 16.7 km/h 70% 0 mm 186.0 W/m2
15:05 -12.7 °C -17 °C 1036.8 hPa WNW 14.8 km/h 14.8 km/h 70% 0 mm 185.0 W/m2
15:09 -12.7 °C -17 °C 1036.8 hPa West 14.5 km/h 14.5 km/h 70% 0 mm 172.0 W/m2
15:11 -12.7 °C -17 °C 1036.5 hPa West 18.5 km/h 18.5 km/h 70% 0 mm 167.0 W/m2
15:14 -12.6 °C -16.9 °C 1036.8 hPa West 18.5 km/h 18.5 km/h 70% 0 mm 158.0 W/m2
15:19 -12.7 °C -17 °C 1036.5 hPa WNW 13 km/h 13 km/h 70% 0 mm 146.0 W/m2
15:21 -12.7 °C -17 °C 1036.5 hPa WNW 18.5 km/h 18.5 km/h 70% 0 mm 142.0 W/m2
15:26 -12.6 °C -16.9 °C 1036.5 hPa West 18.5 km/h 18.5 km/h 70% 0 mm 130.0 W/m2
15:28 -12.6 °C -16.9 °C 1036.5 hPa WNW 13 km/h 13 km/h 70% 0 mm 123.0 W/m2
15:33 -12.7 °C -17 °C 1036.8 hPa WNW 9.7 km/h 9.7 km/h 70% 0 mm 109.0 W/m2
15:35 -12.7 °C -17.1 °C 1036.8 hPa WNW 18.5 km/h 18.5 km/h 70% 0 mm 100.0 W/m2
15:40 -12.8 °C -17.2 °C 1036.8 hPa West 18.5 km/h 18.5 km/h 70% 0 mm 39.0 W/m2
15:41 -12.8 °C -17.2 °C 1036.8 hPa WNW 16.7 km/h 16.7 km/h 70% 0 mm 30.0 W/m2
15:45 -12.9 °C -17.1 °C 1036.8 hPa West 14.8 km/h 14.8 km/h 71% 0 mm 26.0 W/m2
15:48 -13 °C -17.2 °C 1036.8 hPa WSW 18.5 km/h 18.5 km/h 71% 0 mm 25.0 W/m2
15:51 -13.1 °C -17.2 °C 1036.8 hPa WNW 18.5 km/h 18.5 km/h 71% 0 mm 23.0 W/m2
15:53 -13.1 °C -17.3 °C 1036.8 hPa WNW 14.8 km/h 14.8 km/h 71% 0 mm 21.0 W/m2
15:58 -13.2 °C -17.4 °C 1036.8 hPa WNW 14.8 km/h 14.8 km/h 71% 0 mm 21.0 W/m2
16:01 -13.3 °C -17.4 °C 1036.8 hPa West 18.5 km/h 18.5 km/h 71% 0 mm 19.0 W/m2
16:04 -13.3 °C -17.5 °C 1037.1 hPa NW 22.2 km/h 22.2 km/h 71% 0 mm 18.0 W/m2
16:07 -13.3 °C -17.5 °C 1037.1 hPa WNW 18.5 km/h 18.5 km/h 71% 0 mm 16.0 W/m2
16:10 -13.4 °C -17.6 °C 1037.1 hPa WNW 14.8 km/h 14.8 km/h 71% 0 mm 16.0 W/m2
16:15 -13.6 °C -17.7 °C 1037.1 hPa WNW 11.1 km/h 11.1 km/h 71% 0 mm 12.0 W/m2
16:16 -13.5 °C -17.7 °C 1037.1 hPa WNW 11.1 km/h 11.1 km/h 71% 0 mm 12.0 W/m2
16:21 -13.6 °C -17.7 °C 1037.1 hPa WNW 14.8 km/h 14.8 km/h 71% 0 mm 11.0 W/m2
16:23 -13.7 °C -17.8 °C 1037.1 hPa WNW 16.7 km/h 16.7 km/h 71% 0 mm 9.0 W/m2
16:27 -13.7 °C -17.8 °C 1037.1 hPa WNW 14.8 km/h 14.8 km/h 71% 0 mm 7.0 W/m2
16:28 -13.8 °C -17.9 °C 1037.1 hPa WNW 14.8 km/h 14.8 km/h 71% 0 mm 7.0 W/m2
16:33 -13.8 °C -17.9 °C 1037.1 hPa WNW 17.7 km/h 17.7 km/h 71% 0 mm 0.0 W/m2
16:36 -13.8 °C -17.9 °C 1037.5 hPa WNW 14.8 km/h 14.8 km/h 71% 0 mm 0.0 W/m2
16:41 -13.9 °C -18.1 °C 1037.5 hPa WNW 9.3 km/h 9.3 km/h 71% 0 mm 0.0 W/m2
16:45 -14.1 °C -18.2 °C 1037.5 hPa WNW 13 km/h 13 km/h 71% 0 mm 0.0 W/m2
16:47 -14.1 °C -18.2 °C 1037.5 hPa West 14.8 km/h 14.8 km/h 71% 0 mm 0.0 W/m2
16:52 -14.1 °C -18.2 °C 1037.5 hPa WNW 14.8 km/h 14.8 km/h 71% 0 mm 0.0 W/m2
16:53 -14.2 °C -18.3 °C 1037.5 hPa WNW 14.8 km/h 14.8 km/h 71% 0 mm 0.0 W/m2
16:58 -14.2 °C -18.3 °C 1037.5 hPa WNW 16.7 km/h 16.7 km/h 71% 0 mm 0.0 W/m2
16:59 -14.2 °C -18.3 °C 1037.8 hPa West 13 km/h 13 km/h 71% 0 mm 0.0 W/m2
17:00 -14.2 °C -18.3 °C 1037.5 hPa WNW 16.7 km/h 16.7 km/h 71% 0 mm 0.0 W/m2
17:04 -14.3 °C -18.4 °C 1037.8 hPa WNW 13 km/h 13 km/h 71% 0 mm 0.0 W/m2
17:05 -14.3 °C -18.4 °C 1037.8 hPa WNW 14.8 km/h 14.8 km/h 71% 0 mm 0.0 W/m2
17:10 -14.3 °C -18.3 °C 1037.5 hPa NW 14.8 km/h 14.8 km/h 72% 0 mm 0.0 W/m2
17:12 -14.4 °C -18.3 °C 1037.8 hPa WNW 16.7 km/h 16.7 km/h 72% 0 mm 0.0 W/m2
17:17 -14.4 °C -18.4 °C 1037.8 hPa WNW 12.9 km/h 12.9 km/h 72% 0 mm 0.0 W/m2
17:18 -14.5 °C -18.4 °C 1037.8 hPa WNW 11.3 km/h 11.3 km/h 72% 0 mm 0.0 W/m2
17:23 -14.6 °C -18.5 °C 1037.8 hPa WNW 8 km/h 8 km/h 72% 0 mm 0.0 W/m2
17:24 -14.6 °C -18.6 °C 1037.8 hPa WNW 16.7 km/h 16.7 km/h 72% 0 mm 0.0 W/m2
17:26 -14.7 °C -18.6 °C 1037.8 hPa WNW 13 km/h 13 km/h 72% 0 mm 0.0 W/m2
17:30 -14.7 °C -18.7 °C 1037.8 hPa West 18.5 km/h 18.5 km/h 72% 0 mm 0.0 W/m2
17:35 -14.8 °C -18.7 °C 1038.1 hPa WNW 13 km/h 13 km/h 72% 0 mm 0.0 W/m2
17:37 -14.8 °C -18.8 °C 1038.1 hPa WNW 9.3 km/h 9.3 km/h 72% 0 mm 0.0 W/m2
17:42 -14.9 °C -18.8 °C 1038.1 hPa WNW 16.7 km/h 16.7 km/h 72% 0 mm 0.0 W/m2
17:47 -15 °C -18.9 °C 1038.1 hPa WNW 13 km/h 13 km/h 72% 0 mm 0.0 W/m2
17:49 -15 °C -18.8 °C 1038.1 hPa WNW 14.8 km/h 14.8 km/h 73% 0 mm 0.0 W/m2
17:53 -15.1 °C -18.8 °C 1038.1 hPa WNW 18.5 km/h 18.5 km/h 73% 0 mm 0.0 W/m2
17:58 -15.1 °C -18.9 °C 1038.1 hPa WNW 16.7 km/h 16.7 km/h 73% 0 mm 0.0 W/m2
18:03 -15.1 °C -18.9 °C 1038.1 hPa WNW 13 km/h 13 km/h 73% 0 mm 0.0 W/m2
18:04 -15.1 °C -18.9 °C 1038.1 hPa NW 13 km/h 13 km/h 73% 0 mm 0.0 W/m2
18:07 -15.2 °C -18.9 °C 1038.1 hPa WNW 14.8 km/h 14.8 km/h 73% 0 mm 0.0 W/m2
18:09 -15.2 °C -18.9 °C 1038.1 hPa WNW 18.5 km/h 18.5 km/h 73% 0 mm 0.0 W/m2
18:14 -15.2 °C -19 °C 1038.1 hPa WNW 18.5 km/h 18.5 km/h 73% 0 mm 0.0 W/m2
18:16 -15.2 °C -19 °C 1038.1 hPa WNW 16.1 km/h 16.1 km/h 73% 0 mm 0.0 W/m2
18:19 -15.2 °C -19 °C 1038.5 hPa WNW 14.8 km/h 14.8 km/h 73% 0 mm 0.0 W/m2
18:24 -15.3 °C -19.1 °C 1038.5 hPa WNW 13 km/h 13 km/h 73% 0 mm 0.0 W/m2
18:26 -15.3 °C -19.1 °C 1038.5 hPa WNW 20.4 km/h 20.4 km/h 73% 0 mm 0.0 W/m2
18:29 -15.3 °C -19.1 °C 1038.5 hPa WNW 5.6 km/h 5.6 km/h 73% 0 mm 0.0 W/m2
18:32 -15.3 °C -19.1 °C 1038.1 hPa WNW 5.6 km/h 5.6 km/h 73% 0 mm 0.0 W/m2
18:37 -15.3 °C -19.1 °C 1038.5 hPa WNW 14.8 km/h 14.8 km/h 73% 0 mm 0.0 W/m2
18:42 -15.4 °C -19.1 °C 1038.5 hPa WNW 16.7 km/h 16.7 km/h 73% 0 mm 0.0 W/m2
18:43 -15.4 °C -19.1 °C 1038.5 hPa West 16.7 km/h 16.7 km/h 73% 0 mm 0.0 W/m2
18:46 -15.4 °C -19.2 °C 1038.5 hPa NW 13 km/h 13 km/h 73% 0 mm 0.0 W/m2
18:51 -15.4 °C -19.1 °C 1038.5 hPa NW 16.7 km/h 16.7 km/h 73% 0 mm 0.0 W/m2
18:52 -15.4 °C -19.1 °C 1038.5 hPa NW 16.7 km/h 16.7 km/h 73% 0 mm 0.0 W/m2
18:57 -15.4 °C -19.1 °C 1038.5 hPa NW 18.5 km/h 18.5 km/h 73% 0 mm 0.0 W/m2
18:58 -15.4 °C -19.1 °C 1038.5 hPa NW 18.5 km/h 18.5 km/h 73% 0 mm 0.0 W/m2
19:03 -15.4 °C -19.2 °C 1038.5 hPa WNW 13 km/h 13 km/h 73% 0 mm 0.0 W/m2
19:04 -15.4 °C -19.2 °C 1038.5 hPa WNW 16.7 km/h 16.7 km/h 73% 0 mm 0.0 W/m2
19:09 -15.5 °C -19.2 °C 1038.8 hPa WNW 16.7 km/h 16.7 km/h 73% 0 mm 0.0 W/m2
19:10 -15.6 °C -19.3 °C 1038.8 hPa WNW 11.3 km/h 11.3 km/h 73% 0 mm 0.0 W/m2
19:15 -15.6 °C -19.3 °C 1038.8 hPa WNW 16.7 km/h 16.7 km/h 73% 0 mm 0.0 W/m2
19:16 -15.6 °C -19.3 °C 1038.8 hPa WNW 18.5 km/h 18.5 km/h 73% 0 mm 0.0 W/m2
19:18 -15.7 °C -19.4 °C 1038.8 hPa WNW 13 km/h 13 km/h 73% 0 mm 0.0 W/m2
19:21 -15.7 °C -19.4 °C 1038.8 hPa WNW 18.5 km/h 18.5 km/h 73% 0 mm 0.0 W/m2
19:26 -15.7 °C -19.4 °C 1038.8 hPa NW 16.7 km/h 16.7 km/h 73% 0 mm 0.0 W/m2
19:31 -15.7 °C -19.4 °C 1038.8 hPa WNW 14.5 km/h 14.5 km/h 73% 0 mm 0.0 W/m2
19:33 -15.7 °C -19.4 °C 1038.8 hPa WNW 14.8 km/h 14.8 km/h 73% 0 mm 0.0 W/m2
19:37 -15.7 °C -19.4 °C 1038.8 hPa WNW 16.7 km/h 16.7 km/h 73% 0 mm 0.0 W/m2
19:39 -15.7 °C -19.4 °C 1038.8 hPa NW 11.1 km/h 11.1 km/h 73% 0 mm 0.0 W/m2
19:43 -15.8 °C -19.7 °C 1039.2 hPa WNW 14.8 km/h 14.8 km/h 72% 0 mm 0.0 W/m2
19:48 -15.9 °C -19.8 °C 1038.8 hPa WNW 8 km/h 8 km/h 72% 0 mm 0.0 W/m2
19:49 -16 °C -19.9 °C 1039.2 hPa WNW 11.1 km/h 11.1 km/h 72% 0 mm 0.0 W/m2
19:54 -16.2 °C -19.9 °C 1039.2 hPa WNW 13 km/h 13 km/h 73% 0 mm 0.0 W/m2
19:55 -16.2 °C -19.9 °C 1039.2 hPa WNW 14.8 km/h 14.8 km/h 73% 0 mm 0.0 W/m2
20:00 -16.2 °C -19.9 °C 1039.2 hPa WNW 9.7 km/h 9.7 km/h 73% 0 mm 0.0 W/m2
20:02 -16.3 °C -20 °C 1039.2 hPa West 11.3 km/h 11.3 km/h 73% 0 mm 0.0 W/m2
20:07 -16.3 °C -19.8 °C 1039.2 hPa WNW 18.5 km/h 18.5 km/h 74% 0 mm 0.0 W/m2
20:08 -16.3 °C -19.8 °C 1039.2 hPa WNW 18.5 km/h 18.5 km/h 74% 0 mm 0.0 W/m2
20:13 -16.4 °C -19.9 °C 1039.2 hPa West 16.7 km/h 16.7 km/h 74% 0 mm 0.0 W/m2
20:18 -16.4 °C -20 °C 1039.2 hPa West 18.5 km/h 18.5 km/h 74% 0 mm 0.0 W/m2
20:23 -16.6 °C -20.1 °C 1039.2 hPa WNW 18.5 km/h 18.5 km/h 74% 0 mm 0.0 W/m2
20:26 -16.6 °C -20.2 °C 1039.2 hPa West 14.8 km/h 14.8 km/h 74% 0 mm 0.0 W/m2
20:29 -16.7 °C -20.2 °C 1039.2 hPa WNW 14.8 km/h 14.8 km/h 74% 0 mm 0.0 W/m2
20:34 -16.8 °C -20.2 °C 1039.2 hPa WNW 18.5 km/h 18.5 km/h 75% 0 mm 0.0 W/m2
20:35 -16.8 °C -20.4 °C 1039.2 hPa WNW 18.5 km/h 18.5 km/h 74% 0 mm 0.0 W/m2
20:40 -16.9 °C -20.3 °C 1039.2 hPa WNW 16.7 km/h 16.7 km/h 75% 0 mm 0.0 W/m2
20:42 -16.9 °C -20.3 °C 1039.2 hPa WNW 16.1 km/h 16.1 km/h 75% 0 mm 0.0 W/m2
20:46 -17 °C -20.4 °C 1039.5 hPa NW 18.5 km/h 18.5 km/h 75% 0 mm 0.0 W/m2
20:51 -17.1 °C -20.4 °C 1039.2 hPa WNW 16.7 km/h 16.7 km/h 75% 0 mm 0.0 W/m2
20:52 -17.1 °C -20.5 °C 1039.5 hPa WNW 13 km/h 13 km/h 75% 0 mm 0.0 W/m2
20:54 -17.1 °C -20.5 °C 1039.5 hPa West 20.4 km/h 20.4 km/h 75% 0 mm 0.0 W/m2
20:57 -17.2 °C -20.6 °C 1039.5 hPa WNW 18.5 km/h 18.5 km/h 75% 0 mm 0.0 W/m2
21:01 -17.2 °C -20.6 °C 1039.5 hPa NW 18.5 km/h 18.5 km/h 75% 0 mm 0.0 W/m2
21:02 -17.2 °C -20.6 °C 1039.5 hPa WNW 18.5 km/h 18.5 km/h 75% 0 mm 0.0 W/m2
21:07 -17.2 °C -20.6 °C 1039.5 hPa WNW 16.7 km/h 16.7 km/h 75% 0 mm 0.0 W/m2
21:10 -17.3 °C -20.5 °C 1039.5 hPa WNW 20.4 km/h 20.4 km/h 76% 0 mm 0.0 W/m2
21:13 -17.3 °C -20.6 °C 1039.5 hPa WNW 18.5 km/h 18.5 km/h 76% 0 mm 0.0 W/m2
21:17 -17.4 °C -20.7 °C 1039.5 hPa West 13 km/h 13 km/h 76% 0 mm 0.0 W/m2
21:22 -17.6 °C -20.6 °C 1039.5 hPa WNW 13 km/h 13 km/h 77% 0 mm 0.0 W/m2
21:25 -17.7 °C -20.7 °C 1039.5 hPa WNW 13 km/h 13 km/h 77% 0 mm 0.0 W/m2
21:28 -17.8 °C -20.8 °C 1039.5 hPa West 11.3 km/h 12.9 km/h 77% 0 mm 0.0 W/m2
21:31 -17.8 °C -20.9 °C 1039.5 hPa WNW 18.5 km/h 18.5 km/h 77% 0 mm 0.0 W/m2
21:34 -17.9 °C -20.9 °C 1039.8 hPa NW 11.3 km/h 11.3 km/h 77% 0 mm 0.0 W/m2
21:39 -18 °C -21.1 °C 1039.8 hPa WNW 11.3 km/h 11.3 km/h 77% 0 mm 0.0 W/m2
21:43 -18.1 °C -21.2 °C 1039.8 hPa WNW 16.7 km/h 16.7 km/h 77% 0 mm 0.0 W/m2
21:45 -18.1 °C -21.2 °C 1039.8 hPa West 14.8 km/h 14.8 km/h 77% 0 mm 0.0 W/m2
21:50 -18.2 °C -21.3 °C 1039.8 hPa WNW 14.8 km/h 14.8 km/h 77% 0 mm 0.0 W/m2
21:55 -18.3 °C -21.5 °C 1039.8 hPa WNW 20.4 km/h 20.4 km/h 76% 0 mm 0.0 W/m2
21:56 -18.3 °C -21.5 °C 1039.8 hPa WNW 18.5 km/h 18.5 km/h 76% 0 mm 0.0 W/m2
22:01 -18.3 °C -21.5 °C 1039.8 hPa NW 16.7 km/h 16.7 km/h 76% 0 mm 0.0 W/m2
22:06 -18.4 °C -21.6 °C 1039.8 hPa WNW 18.5 km/h 18.5 km/h 76% 0 mm 0.0 W/m2
22:07 -18.4 °C -21.6 °C 1039.8 hPa West 18.5 km/h 18.5 km/h 76% 0 mm 0.0 W/m2
22:12 -18.4 °C -21.6 °C 1040.2 hPa NNW 14.8 km/h 14.8 km/h 76% 0 mm 0.0 W/m2
22:13 -18.4 °C -21.6 °C 1040.2 hPa West 16.1 km/h 16.1 km/h 76% 0 mm 0.0 W/m2
22:18 -18.5 °C -21.8 °C 1040.2 hPa West 18.5 km/h 18.5 km/h 75% 0 mm 0.0 W/m2
22:19 -18.6 °C -21.9 °C 1039.8 hPa WNW 18.5 km/h 18.5 km/h 75% 0 mm 0.0 W/m2
22:24 -18.6 °C -21.9 °C 1040.2 hPa WNW 14.5 km/h 14.5 km/h 75% 0 mm 0.0 W/m2
22:29 -18.7 °C -22 °C 1040.2 hPa WNW 14.8 km/h 14.8 km/h 75% 0 mm 0.0 W/m2
22:34 -18.7 °C -22.1 °C 1040.2 hPa WNW 18.5 km/h 18.5 km/h 75% 0 mm 0.0 W/m2
22:35 -18.7 °C -22.1 °C 1040.2 hPa WNW 18.5 km/h 18.5 km/h 75% 0 mm 0.0 W/m2
22:38 -18.8 °C -22.1 °C 1040.2 hPa West 18.5 km/h 18.5 km/h 75% 0 mm 0.0 W/m2
22:40 -18.8 °C -22.1 °C 1040.2 hPa WNW 14.5 km/h 14.5 km/h 75% 0 mm 0.0 W/m2
22:43 -18.8 °C -22.2 °C 1040.5 hPa West 13 km/h 13 km/h 75% 0 mm 0.0 W/m2
22:46 -18.8 °C -22.3 °C 1040.5 hPa West 16.7 km/h 16.7 km/h 74% 0 mm 0.0 W/m2
22:51 -18.8 °C -22.3 °C 1040.2 hPa West 14.8 km/h 14.8 km/h 74% 0 mm 0.0 W/m2
22:52 -18.8 °C -22.3 °C 1040.5 hPa WNW 13 km/h 13 km/h 74% 0 mm 0.0 W/m2
22:57 -18.8 °C -22.1 °C 1040.5 hPa WNW 13 km/h 13 km/h 75% 0 mm 0.0 W/m2
22:58 -18.8 °C -22.1 °C 1040.5 hPa WNW 14.8 km/h 14.8 km/h 75% 0 mm 0.0 W/m2
23:03 -18.8 °C -22.2 °C 1040.5 hPa WNW 18.5 km/h 18.5 km/h 75% 0 mm 0.0 W/m2
23:06 -18.9 °C -22.2 °C 1040.5 hPa WNW 14.8 km/h 14.8 km/h 75% 0 mm 0.0 W/m2
23:07 -18.9 °C -22.2 °C 1040.5 hPa WNW 14.8 km/h 14.8 km/h 75% 0 mm 0.0 W/m2
23:11 -19 °C -22.3 °C 1040.5 hPa WNW 11.3 km/h 11.3 km/h 75% 0 mm 0.0 W/m2
23:14 -19 °C -22.2 °C 1040.5 hPa WNW 14.8 km/h 14.8 km/h 76% 0 mm 0.0 W/m2
23:16 -19 °C -22.2 °C 1040.5 hPa WNW 14.8 km/h 14.8 km/h 76% 0 mm 0.0 W/m2
23:20 -19.1 °C -22.2 °C 1040.5 hPa West 16.7 km/h 16.7 km/h 76% 0 mm 0.0 W/m2
23:23 -19.1 °C -22.2 °C 1040.5 hPa WNW 18.5 km/h 18.5 km/h 76% 0 mm 0.0 W/m2
23:25 -19.1 °C -22.2 °C 1040.5 hPa WNW 18.5 km/h 18.5 km/h 76% 0 mm 0.0 W/m2
23:30 -19.1 °C -22.4 °C 1040.5 hPa West 16.7 km/h 16.7 km/h 75% 0 mm 0.0 W/m2
23:32 -19.2 °C -22.5 °C 1040.5 hPa West 12.9 km/h 12.9 km/h 75% 0 mm 0.0 W/m2
23:37 -19.2 °C -22.6 °C 1040.5 hPa WNW 18.5 km/h 18.5 km/h 75% 0 mm 0.0 W/m2
23:38 -19.2 °C -22.6 °C 1040.5 hPa WNW 16.7 km/h 16.7 km/h 75% 0 mm 0.0 W/m2
23:43 -19.3 °C -22.6 °C 1040.5 hPa WNW 16.7 km/h 16.7 km/h 75% 0 mm 0.0 W/m2
23:44 -19.3 °C -22.6 °C 1040.5 hPa WNW 16.7 km/h 16.7 km/h 75% 0 mm 0.0 W/m2
23:49 -19.4 °C -22.7 °C 1040.5 hPa WNW 18.5 km/h 18.5 km/h 75% 0 mm 0.0 W/m2
23:50 -19.4 °C -22.8 °C 1040.5 hPa WNW 11.1 km/h 11.1 km/h 75% 0 mm 0.0 W/m2
23:55 -19.5 °C -22.8 °C 1040.5 hPa WNW 16.7 km/h 16.7 km/h 75% 0 mm 0.0 W/m2
23:57 -19.6 °C -23 °C 1040.5 hPa WNW 13 km/h 13 km/h 74% 0 mm 0.0 W/m2
Bourbonnais, Illinois, USA
Compliments of Weather Underground - 4 mb